Terminal Aerodrome Forecast
Issued by NWS Twin Cities, MN

Home | Current Version | Previous Version | Text Only | Print | Product List | Glossary On
Versions: 1 2 3 4 5 6 7 8 9 10 11 12
000
FTUS43 KMPX 251724
TAFEAU
TAF
KEAU 251724Z 2518/2618 16006KT P6SM VCSH OVC120
     FM252300 11004KT P6SM -SHRA OVC050
     FM260000 07004KT 6SM -SHRA BR SCT025 OVC045
      TEMPO 2600/2604 4SM -SHRA BR BKN025
     FM260400 05008KT 5SM -RA BR OVC025
     FM261200 03007KT 5SM -RA BR SCT003 OVC008=

USA.gov is the U.S. government's official web portal to all federal, state and local government web resources and services.